createdAt,value
2023-07-26T00:02:07.841Z,99306.73
2023-07-26T00:04:35.891Z,99304.59
2023-07-26T00:07:03.921Z,99308.41
2023-07-26T00:09:32.132Z,99309.69
2023-07-26T00:12:00.256Z,99315.95
2023-07-26T00:14:28.413Z,99317.36
2023-07-26T00:16:56.844Z,99315.27
2023-07-26T00:19:24.850Z,99317.68
2023-07-26T00:21:52.805Z,99321.33
2023-07-26T00:24:20.634Z,99324.70
2023-07-26T00:26:48.672Z,99328.05
2023-07-26T00:29:16.654Z,99323.59
2023-07-26T00:31:44.812Z,99329.48
2023-07-26T00:34:12.849Z,99330.31
2023-07-26T00:36:40.761Z,99331.80
2023-07-26T00:39:08.828Z,99334.39
2023-07-26T00:41:37.057Z,99335.31
2023-07-26T00:44:07.866Z,99330.63
2023-07-26T00:46:36.048Z,99335.45
2023-07-26T00:49:04.755Z,99338.63
2023-07-26T00:51:37.100Z,99333.83
2023-07-26T00:54:09.437Z,99334.71
2023-07-26T00:56:37.110Z,99343.56
2023-07-26T00:59:07.223Z,99344.36
2023-07-26T01:01:35.818Z,99345.70
2023-07-26T01:04:03.870Z,99341.27
2023-07-26T01:07:08.556Z,99343.20
2023-07-26T01:10:06.379Z,99350.34
2023-07-26T01:12:54.361Z,99348.59
2023-07-26T01:15:34.258Z,99346.20
2023-07-26T01:18:09.883Z,99344.80
2023-07-26T01:20:38.234Z,99351.17
2023-07-26T01:23:06.848Z,99354.46
2023-07-26T01:25:35.403Z,99351.45
2023-07-26T01:28:03.667Z,99347.29
2023-07-26T01:30:33.957Z,99347.48
2023-07-26T01:33:06.171Z,99353.16
2023-07-26T01:35:36.512Z,99358.65
2023-07-26T01:38:05.308Z,99362.04
2023-07-26T01:40:34.252Z,99360.77
2023-07-26T01:43:02.248Z,99363.06
2023-07-26T01:45:30.375Z,99361.33
2023-07-26T01:47:59.115Z,99361.16
2023-07-26T01:50:27.081Z,99361.65
2023-07-26T01:52:54.882Z,99363.28
2023-07-26T01:55:22.973Z,99365.55
2023-07-26T01:57:51.060Z,99367.13
2023-07-26T02:00:18.899Z,99370.55
2023-07-26T02:02:47.137Z,99370.40
2023-07-26T02:05:15.226Z,99370.73
2023-07-26T02:07:43.133Z,99373.77
2023-07-26T02:10:11.064Z,99372.06
2023-07-26T02:12:38.960Z,99373.77
2023-07-26T02:15:07.333Z,99375.71
2023-07-26T02:17:35.967Z,99373.89
2023-07-26T02:20:05.832Z,99379.55
2023-07-26T02:22:34.002Z,99374.42
2023-07-26T02:25:01.960Z,99378.08
2023-07-26T02:27:30.011Z,99381.77
2023-07-26T02:29:57.853Z,99383.88
2023-07-26T02:32:25.859Z,99393.45
2023-07-26T02:34:53.994Z,99396.58
2023-07-26T02:37:21.927Z,99399.62
2023-07-26T02:39:50.377Z,99402.13
2023-07-26T02:42:18.356Z,99401.15
2023-07-26T02:44:47.249Z,99401.38
2023-07-26T02:47:15.381Z,99402.67
2023-07-26T02:49:43.211Z,99407.08
2023-07-26T02:52:11.201Z,99410.02
2023-07-26T02:54:39.054Z,99419.09
2023-07-26T02:57:07.239Z,99421.06
2023-07-26T02:59:35.224Z,99425.73
2023-07-26T03:02:03.247Z,99428.86
2023-07-26T03:04:31.207Z,99430.83
2023-07-26T03:06:59.062Z,99427.48
2023-07-26T03:09:26.952Z,99425.92
2023-07-26T03:11:54.940Z,99433.73
2023-07-26T03:14:22.783Z,99435.45
2023-07-26T03:16:51.046Z,99437.50
2023-07-26T03:19:23.985Z,99438.02
2023-07-26T03:21:51.893Z,99446.99
2023-07-26T03:24:19.705Z,99446.23
2023-07-26T03:26:47.868Z,99450.11
2023-07-26T03:29:15.949Z,99450.10
2023-07-26T03:31:43.807Z,99450.09
2023-07-26T03:34:11.718Z,99451.14
2023-07-26T03:36:39.650Z,99456.25
2023-07-26T03:39:07.587Z,99460.17
2023-07-26T03:41:35.337Z,99460.59
2023-07-26T03:44:03.691Z,99463.48
2023-07-26T03:46:31.915Z,99466.63
2023-07-26T03:49:00.657Z,99469.56
2023-07-26T03:51:28.455Z,99474.06
2023-07-26T03:53:56.346Z,99476.28
2023-07-26T03:56:24.241Z,99481.68
2023-07-26T03:58:52.040Z,99486.84
2023-07-26T04:01:20.120Z,99487.33
2023-07-26T04:03:48.217Z,99492.41
2023-07-26T04:06:16.748Z,99496.23
2023-07-26T04:08:44.684Z,99499.48
2023-07-26T04:11:12.921Z,99506.16
2023-07-26T04:13:40.984Z,99504.65
2023-07-26T04:16:20.075Z,99510.91
2023-07-26T04:18:48.666Z,99516.14
2023-07-26T04:21:18.634Z,99521.38
2023-07-26T04:23:47.384Z,99521.98
2023-07-26T04:26:15.152Z,99527.98
2023-07-26T04:28:43.157Z,99531.99
2023-07-26T04:31:11.082Z,99531.65
2023-07-26T04:33:40.638Z,99536.12
2023-07-26T04:36:08.665Z,99539.79
2023-07-26T04:38:36.391Z,99543.41
2023-07-26T04:41:05.625Z,99550.93
2023-07-26T04:43:33.530Z,99548.63
2023-07-26T04:46:01.518Z,99551.92
2023-07-26T04:48:29.549Z,99556.13
2023-07-26T04:50:57.426Z,99558.61
2023-07-26T04:53:25.188Z,99555.71
2023-07-26T04:55:53.294Z,99556.01
2023-07-26T04:58:21.037Z,99558.94
2023-07-26T05:00:49.017Z,99558.30
2023-07-26T05:03:17.197Z,99559.77
2023-07-26T05:05:51.569Z,99559.78
2023-07-26T05:08:20.014Z,99561.64
2023-07-26T05:10:54.090Z,99565.21
2023-07-26T05:13:24.416Z,99566.49
2023-07-26T05:15:52.286Z,99572.58
2023-07-26T05:18:20.060Z,99568.89
2023-07-26T05:20:54.570Z,99571.59
2023-07-26T05:23:22.604Z,99577.13
2023-07-26T05:25:50.486Z,99579.45
2023-07-26T05:28:18.500Z,99579.88
2023-07-26T05:30:46.280Z,99582.34
2023-07-26T05:33:14.406Z,99585.24
2023-07-26T05:35:42.220Z,99592.19
2023-07-26T05:38:10.220Z,99597.21
2023-07-26T05:40:38.071Z,99601.82
2023-07-26T05:43:05.974Z,99605.38
2023-07-26T05:45:34.146Z,99604.70
2023-07-26T05:48:02.004Z,99604.63
2023-07-26T05:50:29.942Z,99608.29
2023-07-26T05:52:57.886Z,99609.98
2023-07-26T05:55:25.737Z,99614.02
2023-07-26T05:57:54.114Z,99617.44
2023-07-26T06:00:22.571Z,99618.37
2023-07-26T06:02:50.446Z,99623.91
2023-07-26T06:05:18.317Z,99629.08
2023-07-26T06:07:46.455Z,99634.81
2023-07-26T06:10:14.979Z,99637.19
2023-07-26T06:12:43.307Z,99639.10
2023-07-26T06:15:11.253Z,99638.86
2023-07-26T06:17:39.522Z,99645.32
2023-07-26T06:20:07.931Z,99645.91
2023-07-26T06:22:35.751Z,99651.41
2023-07-26T06:25:04.458Z,99652.63
2023-07-26T06:27:32.563Z,99653.08
2023-07-26T06:30:00.503Z,99654.02
2023-07-26T06:32:28.721Z,99660.23
2023-07-26T06:34:58.536Z,99665.46
2023-07-26T06:37:26.317Z,99667.10
2023-07-26T06:39:54.302Z,99666.45
2023-07-26T06:42:22.178Z,99667.23
2023-07-26T06:44:49.969Z,99669.55
2023-07-26T06:47:18.488Z,99671.39
2023-07-26T06:49:46.675Z,99676.78
2023-07-26T06:52:14.716Z,99675.70
2023-07-26T06:54:42.711Z,99680.48
2023-07-26T06:57:11.462Z,99684.21
2023-07-26T06:59:39.253Z,99684.83
2023-07-26T07:02:07.576Z,99687.27
2023-07-26T07:04:36.145Z,99691.77
2023-07-26T07:07:04.239Z,99690.91
2023-07-26T07:09:32.101Z,99695.02
2023-07-26T07:12:00.318Z,99692.49
2023-07-26T07:14:28.383Z,99694.20
2023-07-26T07:16:56.469Z,99694.08
2023-07-26T07:19:24.242Z,99698.73
2023-07-26T07:21:52.421Z,99703.80
2023-07-26T07:24:20.380Z,99709.92
2023-07-26T07:26:48.355Z,99712.73
2023-07-26T07:29:16.187Z,99714.59
2023-07-26T07:31:44.174Z,99716.52
2023-07-26T07:34:11.985Z,99717.23
2023-07-26T07:36:39.924Z,99720.05
2023-07-26T07:39:10.564Z,99725.30
2023-07-26T07:41:39.088Z,99725.70
2023-07-26T07:44:07.164Z,99721.75
2023-07-26T07:46:35.270Z,99723.16
2023-07-26T07:49:03.898Z,99723.98
2023-07-26T07:51:32.232Z,99721.24
2023-07-26T07:54:00.281Z,99717.46
2023-07-26T07:56:28.064Z,99716.16
2023-07-26T07:58:56.020Z,99716.45
2023-07-26T08:01:25.281Z,99716.70
2023-07-26T08:03:53.222Z,99718.45
2023-07-26T08:06:21.192Z,99720.55
2023-07-26T08:08:49.014Z,99724.93
2023-07-26T08:11:16.796Z,99727.91
2023-07-26T08:13:44.992Z,99721.61
2023-07-26T08:16:13.210Z,99727.20
2023-07-26T08:18:41.224Z,99731.79
2023-07-26T08:21:12.443Z,99732.23
2023-07-26T08:23:41.169Z,99736.98
2023-07-26T08:26:10.652Z,99744.69
2023-07-26T08:28:38.598Z,99744.14
2023-07-26T08:31:06.650Z,99743.11
2023-07-26T08:33:34.533Z,99746.79
2023-07-26T08:36:02.970Z,99751.13
2023-07-26T08:38:31.102Z,99754.64
2023-07-26T08:40:59.262Z,99759.23
2023-07-26T08:43:32.115Z,99761.57
2023-07-26T08:46:04.352Z,99767.67
2023-07-26T08:48:33.623Z,99766.77
2023-07-26T08:51:02.388Z,99766.33
2023-07-26T08:53:31.133Z,99765.01
2023-07-26T08:55:59.303Z,99763.83
2023-07-26T08:58:27.799Z,99767.86
2023-07-26T09:00:55.851Z,99774.80
2023-07-26T09:03:24.015Z,99784.41
2023-07-26T09:06:12.352Z,99786.04
2023-07-26T09:08:40.290Z,99790.16
2023-07-26T09:11:21.977Z,99793.54
2023-07-26T09:13:56.647Z,99794.04
2023-07-26T09:16:28.715Z,99794.72
2023-07-26T09:19:05.940Z,99792.58
2023-07-26T09:21:37.067Z,99790.42
2023-07-26T09:24:05.792Z,99788.92
2023-07-26T09:26:42.323Z,99786.19
2023-07-26T09:29:12.590Z,99787.42
2023-07-26T09:31:44.520Z,99779.11
2023-07-26T09:34:14.681Z,99777.75
2023-07-26T09:36:47.670Z,99780.05
2023-07-26T09:39:17.405Z,99781.41
2023-07-26T09:41:47.257Z,99784.54
2023-07-26T09:44:20.273Z,99787.52
2023-07-26T09:46:51.957Z,99786.42
2023-07-26T09:49:24.902Z,99784.73
2023-07-26T09:54:33.075Z,99790.70
2023-07-26T09:57:02.439Z,99793.27
2023-07-26T09:59:31.614Z,99794.12
2023-07-26T10:02:04.977Z,99789.08
2023-07-26T10:04:43.077Z,99784.88
2023-07-26T10:07:13.602Z,99784.56
2023-07-26T10:09:45.100Z,99784.61
2023-07-26T10:12:13.519Z,99785.86
2023-07-26T10:14:41.417Z,99784.18
2023-07-26T10:17:11.562Z,99785.59
2023-07-26T10:19:40.263Z,99785.82
2023-07-26T10:22:08.533Z,99785.28
2023-07-26T10:24:38.160Z,99784.84
2023-07-26T10:27:06.484Z,99791.10
2023-07-26T10:29:34.482Z,99789.26
2023-07-26T10:32:07.776Z,99790.86
2023-07-26T10:34:35.988Z,99793.93
2023-07-26T10:37:20.695Z,99794.13
2023-07-26T10:39:50.600Z,99797.64
2023-07-26T10:42:26.440Z,99799.94
2023-07-26T10:44:56.377Z,99800.72
2023-07-26T10:47:24.508Z,99803.19
2023-07-26T10:49:55.345Z,99795.15
2023-07-26T10:52:23.450Z,99798.92
2023-07-26T10:54:52.140Z,99800.16
2023-07-26T10:57:21.589Z,99799.84
2023-07-26T10:59:57.938Z,99797.52
2023-07-26T11:02:38.738Z,99792.17
2023-07-26T11:05:14.314Z,99798.63
2023-07-26T11:08:09.180Z,99793.86
2023-07-26T11:10:50.609Z,99797.29
2023-07-26T11:13:28.428Z,99799.04
2023-07-26T11:16:15.602Z,99797.91
2023-07-26T11:18:44.558Z,99795.54
2023-07-26T11:21:16.934Z,99795.20
2023-07-26T11:23:45.907Z,99794.59
2023-07-26T11:26:13.690Z,99796.10
2023-07-26T11:28:42.576Z,99793.45
2023-07-26T11:31:20.359Z,99794.27
2023-07-26T11:33:49.354Z,99793.18
2023-07-26T11:36:21.645Z,99787.56
2023-07-26T11:38:49.798Z,99780.24
2023-07-26T11:41:21.034Z,99776.89
2023-07-26T11:43:49.598Z,99775.89
2023-07-26T11:46:27.379Z,99776.14
2023-07-26T11:48:55.923Z,99774.48
2023-07-26T11:51:23.909Z,99778.93
2023-07-26T11:53:56.891Z,99777.03
2023-07-26T11:56:32.622Z,99774.58
2023-07-26T11:59:01.452Z,99770.02
2023-07-26T12:01:30.429Z,99772.36
2023-07-26T12:03:58.694Z,99774.91
2023-07-26T12:06:34.695Z,99773.60
2023-07-26T12:09:13.105Z,99770.66
2023-07-26T12:11:43.505Z,99771.60
2023-07-26T12:14:16.854Z,99776.05
2023-07-26T12:16:54.886Z,99777.20
2023-07-26T12:19:25.298Z,99784.94
2023-07-26T12:21:53.965Z,99783.98
2023-07-26T12:24:22.133Z,99783.70
2023-07-26T12:26:53.193Z,99785.45
2023-07-26T12:29:29.368Z,99785.64
2023-07-26T12:32:04.608Z,99784.67
2023-07-26T12:34:34.400Z,99787.90
2023-07-26T12:37:02.567Z,99793.75
2023-07-26T12:39:30.945Z,99794.81
2023-07-26T12:41:59.085Z,99793.83
2023-07-26T12:44:28.210Z,99798.20
2023-07-26T12:47:26.775Z,99800.14
2023-07-26T12:49:44.757Z,99802.45
2023-07-26T12:52:12.721Z,99803.46
2023-07-26T12:54:40.707Z,99804.77
2023-07-26T12:57:08.653Z,99802.81
2023-07-26T12:59:36.718Z,99805.34
2023-07-26T13:02:05.903Z,99808.90
2023-07-26T13:04:33.995Z,99811.95
2023-07-26T13:07:02.003Z,99818.70
2023-07-26T13:09:29.848Z,99815.77
2023-07-26T13:11:58.052Z,99815.11
2023-07-26T13:14:26.277Z,99818.77
2023-07-26T13:16:54.015Z,99817.27
2023-07-26T13:19:22.160Z,99812.88
2023-07-26T13:21:49.896Z,99811.86
2023-07-26T13:24:18.079Z,99810.60
2023-07-26T13:26:46.090Z,99809.96
2023-07-26T13:29:13.935Z,99803.16
2023-07-26T13:31:41.803Z,99800.91
2023-07-26T13:34:09.807Z,99791.56
2023-07-26T13:36:37.691Z,99789.60
2023-07-26T13:39:24.167Z,99789.08
2023-07-26T13:41:52.408Z,99793.05
2023-07-26T13:44:21.068Z,99793.42
2023-07-26T13:46:49.026Z,99795.72
2023-07-26T13:49:17.382Z,99795.38
2023-07-26T13:51:48.382Z,99790.99
2023-07-26T13:54:16.296Z,99782.75
2023-07-26T13:56:44.119Z,99785.04
2023-07-26T13:59:12.084Z,99786.15
2023-07-26T14:01:40.077Z,99783.27
2023-07-26T14:04:08.418Z,99782.08
2023-07-26T14:06:36.401Z,99782.30
2023-07-26T14:09:05.616Z,99786.96
2023-07-26T14:11:34.882Z,99787.89
2023-07-26T14:14:04.394Z,99785.76
2023-07-26T14:16:32.381Z,99784.49
2023-07-26T14:19:00.656Z,99788.03
2023-07-26T14:21:28.437Z,99786.73
2023-07-26T14:23:56.387Z,99787.88
2023-07-26T14:26:24.605Z,99784.53
2023-07-26T14:28:52.490Z,99782.83
2023-07-26T14:31:20.559Z,99782.36
2023-07-26T14:33:49.037Z,99777.39
2023-07-26T14:36:16.952Z,99775.80
2023-07-26T14:38:44.783Z,99781.98
2023-07-26T14:41:12.798Z,99787.12
2023-07-26T14:43:41.119Z,99778.02
2023-07-26T14:46:10.378Z,99779.53
2023-07-26T14:48:38.667Z,99782.39
2023-07-26T14:51:06.525Z,99784.50
2023-07-26T14:53:34.501Z,99783.29
2023-07-26T14:56:02.434Z,99779.80
2023-07-26T14:58:30.186Z,99771.98
2023-07-26T15:00:58.250Z,99769.89
2023-07-26T15:03:26.457Z,99770.80
2023-07-26T15:05:54.843Z,99775.21
2023-07-26T15:08:22.806Z,99776.85
2023-07-26T15:10:51.727Z,99779.20
2023-07-26T15:13:19.701Z,99783.73
2023-07-26T15:15:47.458Z,99784.26
2023-07-26T15:18:15.486Z,99779.04
2023-07-26T15:20:43.893Z,99778.43
2023-07-26T15:23:13.081Z,99777.99
2023-07-26T15:25:41.491Z,99778.68
2023-07-26T15:28:09.529Z,99777.30
2023-07-26T15:30:38.228Z,99776.69
2023-07-26T15:33:06.826Z,99776.98
2023-07-26T15:35:37.906Z,99777.89
2023-07-26T15:38:07.240Z,99779.04
2023-07-26T15:43:22.973Z,99775.02
2023-07-26T15:48:22.540Z,99774.47
2023-07-26T15:53:22.581Z,99775.73
2023-07-26T15:55:53.771Z,99776.41
2023-07-26T15:58:27.775Z,99776.36
2023-07-26T16:00:58.925Z,99771.90
2023-07-26T16:11:00.754Z,99769.61
2023-07-26T16:13:28.565Z,99776.75
2023-07-26T16:18:28.689Z,99774.46
2023-07-26T16:23:28.081Z,99776.09
2023-07-26T16:25:56.057Z,99771.87
2023-07-26T16:28:23.854Z,99774.20
2023-07-26T16:30:51.847Z,99778.55
2023-07-26T16:33:20.016Z,99776.69
2023-07-26T16:35:47.889Z,99775.96
2023-07-26T16:38:15.957Z,99777.09
2023-07-26T16:40:43.826Z,99781.17
2023-07-26T16:43:15.141Z,99782.30
2023-07-26T16:45:43.096Z,99786.56
2023-07-26T16:48:11.121Z,99783.16
2023-07-26T16:50:39.048Z,99780.92
2023-07-26T16:53:08.304Z,99781.11
2023-07-26T16:55:36.248Z,99779.10
2023-07-26T16:58:04.442Z,99787.81
2023-07-26T17:00:33.009Z,99782.63
2023-07-26T17:03:01.340Z,99782.34
2023-07-26T17:05:29.584Z,99785.36
2023-07-26T17:07:57.645Z,99786.56
2023-07-26T17:10:25.681Z,99789.17
2023-07-26T17:12:53.661Z,99794.52
2023-07-26T17:15:21.916Z,99795.04
2023-07-26T17:17:50.035Z,99795.70
2023-07-26T17:20:18.733Z,99796.54
2023-07-26T17:22:47.053Z,99797.50
2023-07-26T17:25:15.283Z,99801.21
2023-07-26T17:27:43.145Z,99804.16
2023-07-26T17:30:11.797Z,99808.91
2023-07-26T17:32:39.788Z,99810.58
2023-07-26T17:35:10.098Z,99814.30
2023-07-26T17:37:38.634Z,99815.16
2023-07-26T17:40:07.152Z,99817.12
2023-07-26T17:42:35.523Z,99820.96
2023-07-26T17:45:05.202Z,99822.34
2023-07-26T17:47:32.988Z,99828.30
2023-07-26T17:50:00.930Z,99835.51
2023-07-26T17:52:29.287Z,99840.16
2023-07-26T17:54:57.253Z,99839.33
2023-07-26T17:57:25.778Z,99846.98
2023-07-26T17:59:53.752Z,99850.80
2023-07-26T18:02:21.520Z,99853.30
2023-07-26T18:04:49.338Z,99854.98
2023-07-26T18:07:17.406Z,99855.92
2023-07-26T18:09:45.943Z,99861.41
2023-07-26T18:12:14.044Z,99861.83
2023-07-26T18:14:41.887Z,99862.39
2023-07-26T18:17:09.927Z,99861.14
2023-07-26T18:19:37.812Z,99865.89
2023-07-26T18:22:06.317Z,99865.44
2023-07-26T18:24:34.280Z,99866.62
2023-07-26T18:27:02.305Z,99866.54
2023-07-26T18:29:30.221Z,99868.80
2023-07-26T18:31:58.099Z,99873.55
2023-07-26T18:34:25.914Z,99873.10
2023-07-26T18:36:53.956Z,99870.86
2023-07-26T18:39:22.325Z,99883.73
2023-07-26T18:41:50.238Z,99888.14
2023-07-26T18:44:18.275Z,99896.48
2023-07-26T18:46:46.268Z,99898.80
2023-07-26T18:49:14.126Z,99908.41
2023-07-26T18:51:41.973Z,99910.63
2023-07-26T18:54:09.784Z,99912.86
2023-07-26T18:56:37.661Z,99915.49
2023-07-26T18:59:05.565Z,99923.63
2023-07-26T19:01:34.050Z,99923.61
2023-07-26T19:04:02.063Z,99924.04
2023-07-26T19:06:30.060Z,99925.05
2023-07-26T19:08:58.134Z,99926.92
2023-07-26T19:11:27.609Z,99929.85
2023-07-26T19:13:55.829Z,99931.19
2023-07-26T19:16:24.327Z,99933.62
2023-07-26T19:18:53.552Z,99936.23
2023-07-26T19:21:21.582Z,99934.59
2023-07-26T19:23:49.529Z,99940.56
2023-07-26T19:26:17.954Z,99945.05
2023-07-26T19:28:47.045Z,99947.64
2023-07-26T19:31:15.703Z,99947.45
2023-07-26T19:33:44.479Z,99950.69
2023-07-26T19:36:12.484Z,99950.60
2023-07-26T19:38:40.861Z,99951.86
2023-07-26T19:41:19.675Z,99957.41
2023-07-26T19:43:48.963Z,99958.71
2023-07-26T19:46:18.064Z,99961.05
2023-07-26T19:48:51.703Z,99961.89
2023-07-26T19:51:20.526Z,99961.34
2023-07-26T19:53:48.377Z,99966.26
2023-07-26T19:56:16.277Z,99967.02
2023-07-26T19:58:44.192Z,99969.53
2023-07-26T20:01:12.148Z,99977.06
2023-07-26T20:03:40.098Z,99981.77
2023-07-26T20:06:08.096Z,99976.27
2023-07-26T20:08:35.896Z,99978.88
2023-07-26T20:11:03.903Z,99981.69
2023-07-26T20:13:31.992Z,99986.20
2023-07-26T20:15:59.839Z,99989.70
2023-07-26T20:18:28.062Z,99992.30
2023-07-26T20:20:56.595Z,99994.36
2023-07-26T20:23:24.547Z,99996.73
2023-07-26T20:25:52.482Z,99999.86
2023-07-26T20:28:20.395Z,100001.40
2023-07-26T20:30:48.263Z,99999.14
2023-07-26T20:33:16.252Z,99999.66
2023-07-26T20:35:47.109Z,100004.41
2023-07-26T20:38:15.002Z,100001.95
2023-07-26T20:40:42.812Z,100003.52
2023-07-26T20:43:10.747Z,100005.89
2023-07-26T20:45:38.935Z,100005.23
2023-07-26T20:48:07.190Z,100008.51
2023-07-26T20:50:36.446Z,100008.36
2023-07-26T20:53:04.597Z,100008.83
2023-07-26T20:55:32.433Z,100006.52
2023-07-26T20:58:00.292Z,100009.94
2023-07-26T21:00:47.018Z,100012.29
2023-07-26T21:03:14.940Z,100012.44
2023-07-26T21:05:46.516Z,100012.46
2023-07-26T21:08:14.683Z,100014.96
2023-07-26T21:10:43.404Z,100015.64
2023-07-26T21:13:11.213Z,100011.58
2023-07-26T21:15:39.185Z,100013.25
2023-07-26T21:18:07.242Z,100011.73
2023-07-26T21:20:36.356Z,100013.20
2023-07-26T21:23:04.239Z,100014.45
2023-07-26T21:25:32.200Z,100023.08
2023-07-26T21:28:00.140Z,100025.37
2023-07-26T21:30:28.832Z,100027.73
2023-07-26T21:32:57.066Z,100032.13
2023-07-26T21:35:24.908Z,100035.58
2023-07-26T21:37:52.693Z,100036.63
2023-07-26T21:40:20.664Z,100042.77
2023-07-26T21:42:48.514Z,100043.14
2023-07-26T21:45:16.375Z,100039.11
2023-07-26T21:47:44.337Z,100044.72
2023-07-26T21:50:12.427Z,100050.30
2023-07-26T21:52:40.292Z,100058.48
2023-07-26T21:55:08.823Z,100058.90
2023-07-26T21:57:40.041Z,100063.11
2023-07-26T22:00:12.509Z,100063.35
2023-07-26T22:02:40.634Z,100060.60
2023-07-26T22:05:09.624Z,100060.88
2023-07-26T22:07:37.714Z,100058.34
2023-07-26T22:10:05.978Z,100062.67
2023-07-26T22:12:34.004Z,100063.30
2023-07-26T22:15:01.996Z,100068.86
2023-07-26T22:17:30.189Z,100072.41
2023-07-26T22:19:58.333Z,100073.35
2023-07-26T22:22:27.440Z,100077.46
2023-07-26T22:24:55.663Z,100077.55
2023-07-26T22:27:23.618Z,100077.46
2023-07-26T22:29:51.706Z,100079.02
2023-07-26T22:32:19.549Z,100079.25
2023-07-26T22:34:47.539Z,100079.11
2023-07-26T22:37:15.521Z,100087.81
2023-07-26T22:39:43.408Z,100087.23
2023-07-26T22:42:11.361Z,100082.80
2023-07-26T22:44:39.176Z,100086.40
2023-07-26T22:47:08.103Z,100085.81
2023-07-26T22:49:36.214Z,100085.73
2023-07-26T22:52:04.335Z,100089.02
2023-07-26T22:54:32.176Z,100084.77
2023-07-26T22:57:00.098Z,100082.14
2023-07-26T22:59:28.091Z,100083.73
2023-07-26T23:01:56.123Z,100078.69
2023-07-26T23:04:23.904Z,100077.95
2023-07-26T23:06:51.978Z,100081.83
2023-07-26T23:09:19.789Z,100086.77
2023-07-26T23:11:47.534Z,100092.66
2023-07-26T23:14:15.570Z,100091.80
2023-07-26T23:16:43.465Z,100090.78
2023-07-26T23:19:11.324Z,100091.58
2023-07-26T23:21:39.417Z,100089.33
2023-07-26T23:24:07.493Z,100095.02
2023-07-26T23:26:35.837Z,100096.59
2023-07-26T23:29:04.170Z,100095.08
2023-07-26T23:31:32.054Z,100096.25
2023-07-26T23:34:00.810Z,100098.69
2023-07-26T23:36:28.634Z,100098.98
2023-07-26T23:38:56.760Z,100099.45
2023-07-26T23:41:24.878Z,100100.69
2023-07-26T23:43:52.846Z,100100.20
2023-07-26T23:46:20.739Z,100099.29
2023-07-26T23:48:51.239Z,100100.35
2023-07-26T23:51:19.183Z,100098.60
2023-07-26T23:53:47.329Z,100098.95
2023-07-26T23:56:15.311Z,100096.92
2023-07-26T23:58:43.122Z,100095.92
